createdAt,value
2019-04-16T00:01:01.928Z,25.07
2019-04-16T00:03:30.771Z,23.57
2019-04-16T00:06:06.670Z,24.60
2019-04-16T00:08:45.847Z,30.27
2019-04-16T00:11:32.386Z,25.83
2019-04-16T00:14:11.532Z,24.93
2019-04-16T00:16:41.337Z,28.83
2019-04-16T00:19:11.427Z,27.23
2019-04-16T00:21:57.229Z,28.03
2019-04-16T00:24:30.756Z,32.77
2019-04-16T00:27:00.052Z,30.80
2019-04-16T00:29:33.007Z,31.07
2019-04-16T00:32:02.645Z,24.93
2019-04-16T00:34:32.036Z,30.83
2019-04-16T00:37:00.822Z,32.77
2019-04-16T00:39:29.533Z,35.33
2019-04-16T00:42:00.178Z,29.47
2019-04-16T00:44:29.526Z,35.70
2019-04-16T00:47:00.377Z,32.00
2019-04-16T00:49:30.845Z,35.63
2019-04-16T00:51:59.893Z,35.77
2019-04-16T00:54:30.333Z,24.17
2019-04-16T00:56:59.660Z,33.77
2019-04-16T00:59:29.072Z,34.60
2019-04-16T01:02:01.897Z,40.80
2019-04-16T01:04:30.686Z,33.50
2019-04-16T01:07:00.113Z,35.50
2019-04-16T01:09:28.957Z,35.10
2019-04-16T01:12:01.249Z,32.80
2019-04-16T01:14:31.394Z,31.37
2019-04-16T01:17:04.087Z,32.50
2019-04-16T01:19:30.649Z,32.90
2019-04-16T01:21:59.972Z,28.60
2019-04-16T01:24:29.194Z,31.03
2019-04-16T01:26:59.057Z,33.57
2019-04-16T01:29:28.223Z,31.17
2019-04-16T01:32:15.515Z,26.30
2019-04-16T01:35:01.295Z,31.57
2019-04-16T01:37:49.380Z,32.60
2019-04-16T01:40:20.396Z,25.37
2019-04-16T01:42:49.062Z,27.77
2019-04-16T01:45:20.020Z,29.53
2019-04-16T01:47:48.895Z,35.33
2019-04-16T01:50:20.483Z,28.23
2019-04-16T01:52:50.752Z,28.40
2019-04-16T01:55:19.564Z,29.67
2019-04-16T01:57:49.002Z,40.40
2019-04-16T02:00:20.180Z,29.90
2019-04-16T02:02:49.739Z,34.87
2019-04-16T02:05:20.399Z,30.23
2019-04-16T02:07:49.774Z,30.30
2019-04-16T02:10:18.544Z,31.80
2019-04-16T02:12:47.189Z,24.07
2019-04-16T02:15:21.544Z,27.57
2019-04-16T02:17:47.471Z,25.53
2019-04-16T02:20:21.124Z,26.70
2019-04-16T02:22:49.875Z,25.40
2019-04-16T02:25:20.082Z,26.90
2019-04-16T02:27:50.141Z,28.77
2019-04-16T02:30:18.958Z,27.87
2019-04-16T02:32:49.292Z,23.40
2019-04-16T02:35:20.399Z,22.87
2019-04-16T02:37:49.166Z,23.70
2019-04-16T02:40:19.329Z,29.83
2019-04-16T02:42:49.840Z,26.67
2019-04-16T02:45:23.529Z,29.37
2019-04-16T02:47:51.678Z,28.63
2019-04-16T02:50:30.587Z,34.93
2019-04-16T02:53:12.926Z,23.77
2019-04-16T02:55:49.765Z,28.43
2019-04-16T02:58:22.952Z,22.27
2019-04-16T03:00:59.047Z,30.90
2019-04-16T03:03:34.157Z,24.10
2019-04-16T03:06:01.029Z,23.33
2019-04-16T03:08:30.534Z,27.33
2019-04-16T03:10:59.254Z,25.07
2019-04-16T03:13:30.540Z,23.60
2019-04-16T03:16:18.599Z,28.57
2019-04-16T03:18:55.643Z,32.83
2019-04-16T03:21:27.562Z,30.67
2019-04-16T03:23:56.313Z,28.73
2019-04-16T03:26:25.062Z,21.50
2019-04-16T03:28:59.117Z,28.43
2019-04-16T03:31:28.131Z,24.83
2019-04-16T03:34:02.637Z,27.47
2019-04-16T03:36:29.567Z,29.17
2019-04-16T03:39:00.896Z,27.10
2019-04-16T03:41:29.666Z,29.93
2019-04-16T03:44:04.068Z,22.27
2019-04-16T03:46:32.133Z,27.77
2019-04-16T03:49:04.836Z,24.00
2019-04-16T03:51:36.601Z,21.27
2019-04-16T03:54:07.806Z,21.63
2019-04-16T03:56:37.858Z,24.17
2019-04-16T03:59:10.542Z,24.70
2019-04-16T04:01:40.280Z,24.03
2019-04-16T04:04:10.700Z,31.10
2019-04-16T04:06:40.795Z,23.07
2019-04-16T04:09:09.664Z,28.17
2019-04-16T04:11:40.872Z,37.57
2019-04-16T04:14:08.775Z,23.47
2019-04-16T04:16:37.508Z,33.33
2019-04-16T04:19:08.068Z,33.27
2019-04-16T04:21:38.050Z,32.13
2019-04-16T04:24:06.853Z,25.27
2019-04-16T04:26:40.874Z,29.63
2019-04-16T04:29:08.569Z,25.37
2019-04-16T04:31:38.252Z,23.43
2019-04-16T04:34:09.992Z,29.50
2019-04-16T04:36:39.023Z,27.57
2019-04-16T04:39:14.422Z,25.40
2019-04-16T04:41:40.139Z,24.20
2019-04-16T04:44:09.297Z,25.67
2019-04-16T04:46:43.195Z,21.00
2019-04-16T04:49:13.839Z,24.77
2019-04-16T04:51:43.631Z,22.57
2019-04-16T04:54:12.525Z,31.73
2019-04-16T04:56:42.873Z,25.83
2019-04-16T04:59:11.642Z,22.40
2019-04-16T05:01:41.959Z,22.87
2019-04-16T05:04:19.293Z,25.40
2019-04-16T05:06:47.686Z,39.13
2019-04-16T05:09:16.466Z,29.80
2019-04-16T05:11:48.561Z,26.90
2019-04-16T05:14:19.921Z,21.70
2019-04-16T05:16:49.963Z,18.23
2019-04-16T05:19:18.674Z,20.73
2019-04-16T05:21:50.651Z,22.07
2019-04-16T05:24:19.546Z,21.63
2019-04-16T05:26:49.845Z,22.70
2019-04-16T05:29:19.098Z,22.97
2019-04-16T05:31:51.495Z,27.77
2019-04-16T05:34:21.489Z,22.03
2019-04-16T05:36:52.888Z,25.83
2019-04-16T05:39:26.678Z,17.87
2019-04-16T05:41:57.598Z,17.70
2019-04-16T05:44:33.435Z,15.17
2019-04-16T05:47:02.308Z,18.63
2019-04-16T05:49:30.986Z,20.07
2019-04-16T05:52:03.805Z,18.50
2019-04-16T05:54:36.368Z,20.13
2019-04-16T05:57:10.679Z,22.13
2019-04-16T05:59:42.015Z,19.20
2019-04-16T06:02:15.078Z,20.53
2019-04-16T06:04:47.609Z,22.30
2019-04-16T06:07:17.725Z,20.80
2019-04-16T06:09:48.336Z,19.50
2019-04-16T06:12:40.745Z,20.80
2019-04-16T06:15:14.705Z,35.50
2019-04-16T06:17:48.666Z,22.67
2019-04-16T06:20:26.822Z,21.93
2019-04-16T06:23:02.052Z,16.33
2019-04-16T06:25:41.419Z,13.57
2019-04-16T06:28:22.671Z,15.03
2019-04-16T06:30:55.473Z,14.03
2019-04-16T06:33:28.228Z,14.00
2019-04-16T06:35:59.793Z,20.53
2019-04-16T06:38:37.763Z,14.23
2019-04-16T06:41:13.523Z,15.00
2019-04-16T06:47:01.333Z,15.63
2019-04-16T06:49:35.907Z,16.40
2019-04-16T06:52:25.168Z,26.27
2019-04-16T06:55:03.394Z,36.23
2019-04-16T06:57:34.528Z,17.20
2019-04-16T07:00:07.315Z,11.93
2019-04-16T07:03:03.103Z,10.90
2019-04-16T07:05:45.546Z,9.07
2019-04-16T07:08:38.142Z,6.83
2019-04-16T07:11:10.996Z,8.23
2019-04-16T07:13:43.006Z,12.53
2019-04-16T07:16:28.145Z,9.77
2019-04-16T07:18:56.542Z,7.40
2019-04-16T07:24:31.825Z,8.33
2019-04-16T07:30:04.899Z,13.67
2019-04-16T07:32:41.639Z,8.40
2019-04-16T07:35:21.436Z,13.07
2019-04-16T07:37:58.509Z,10.57
2019-04-16T07:40:46.274Z,7.10
2019-04-16T07:43:35.434Z,8.90
2019-04-16T07:46:09.079Z,11.30
2019-04-16T07:48:56.432Z,8.57
2019-04-16T07:51:41.996Z,11.57
2019-04-16T07:57:16.298Z,7.07
2019-04-16T07:59:47.757Z,9.27
2019-04-16T08:02:17.682Z,8.60
2019-04-16T08:04:49.742Z,14.10
2019-04-16T08:07:20.623Z,14.57
2019-04-16T08:09:50.927Z,7.93
2019-04-16T08:12:29.807Z,9.67
2019-04-16T08:14:51.017Z,13.43
2019-04-16T08:17:20.555Z,13.57
2019-04-16T08:19:55.200Z,11.03
2019-04-16T08:22:26.084Z,22.40
2019-04-16T08:25:02.519Z,19.97
2019-04-16T08:27:31.856Z,14.63
2019-04-16T08:30:07.389Z,10.10
2019-04-16T08:32:40.431Z,10.00
2019-04-16T08:35:12.420Z,11.13
2019-04-16T08:37:49.257Z,4.90
2019-04-16T08:40:19.094Z,7.37
2019-04-16T08:42:50.748Z,10.27
2019-04-16T08:45:24.390Z,7.23
2019-04-16T08:47:57.419Z,6.30
2019-04-16T08:50:28.368Z,6.60
2019-04-16T08:52:58.645Z,5.33
2019-04-16T08:55:28.585Z,5.27
2019-04-16T08:57:57.614Z,7.93
2019-04-16T09:00:29.791Z,5.60
2019-04-16T09:02:59.710Z,6.90
2019-04-16T09:05:31.448Z,7.27
2019-04-16T09:08:13.426Z,7.23
2019-04-16T09:10:44.516Z,10.10
2019-04-16T09:13:16.162Z,5.90
2019-04-16T09:15:45.675Z,7.33
2019-04-16T09:18:28.186Z,8.77
2019-04-16T09:21:01.712Z,8.10
2019-04-16T09:23:37.605Z,6.73
2019-04-16T09:26:22.621Z,23.77
2019-04-16T09:28:52.516Z,6.23
2019-04-16T09:31:32.405Z,5.40
2019-04-16T09:34:07.502Z,7.57
2019-04-16T09:36:58.648Z,6.23
2019-04-16T09:42:24.118Z,5.23
2019-04-16T09:44:53.067Z,6.13
2019-04-16T09:47:32.436Z,7.13
2019-04-16T09:49:58.750Z,4.80
2019-04-16T09:52:31.381Z,6.03
2019-04-16T09:55:11.768Z,5.33
2019-04-16T09:57:44.338Z,5.20
2019-04-16T10:00:20.451Z,5.20
2019-04-16T10:02:54.925Z,3.63
2019-04-16T10:05:26.487Z,4.30
2019-04-16T10:08:06.032Z,3.53
2019-04-16T10:10:38.892Z,5.23
2019-04-16T10:13:09.627Z,20.53
2019-04-16T10:15:41.114Z,5.10
2019-04-16T10:18:14.482Z,13.37
2019-04-16T10:20:46.374Z,28.70
2019-04-16T10:23:28.069Z,15.33
2019-04-16T10:25:56.829Z,6.13
2019-04-16T10:28:29.530Z,4.23
2019-04-16T10:31:00.834Z,7.37
2019-04-16T10:33:31.872Z,4.13
2019-04-16T10:36:04.920Z,6.10
2019-04-16T10:38:38.039Z,5.07
2019-04-16T10:41:14.940Z,3.53
2019-04-16T10:43:54.054Z,4.90
2019-04-16T10:46:34.439Z,26.93
2019-04-16T10:49:12.283Z,6.30
2019-04-16T10:51:44.960Z,7.63
2019-04-16T10:54:39.366Z,5.50
2019-04-16T10:57:30.596Z,8.20
2019-04-16T11:00:04.521Z,8.67
2019-04-16T11:02:40.455Z,7.17
2019-04-16T11:05:20.392Z,5.33
2019-04-16T11:07:51.999Z,6.87
2019-04-16T11:10:26.322Z,7.97
2019-04-16T11:12:57.687Z,9.03
2019-04-16T11:15:27.973Z,4.47
2019-04-16T11:18:04.493Z,8.13
2019-04-16T11:20:34.365Z,5.90
2019-04-16T11:23:06.866Z,4.87
2019-04-16T11:25:40.496Z,17.63
2019-04-16T11:28:13.960Z,6.60
2019-04-16T11:30:48.912Z,11.87
2019-04-16T11:33:29.206Z,7.13
2019-04-16T11:35:55.029Z,5.57
2019-04-16T11:38:23.942Z,6.60
2019-04-16T11:40:54.495Z,5.07
2019-04-16T11:43:28.408Z,7.63
2019-04-16T11:46:02.758Z,5.63
2019-04-16T11:48:39.338Z,6.17
2019-04-16T11:51:12.730Z,6.90
2019-04-16T11:53:49.093Z,8.60
2019-04-16T11:56:22.906Z,7.63
2019-04-16T11:58:57.201Z,8.23
2019-04-16T12:01:42.778Z,7.63
2019-04-16T12:04:16.450Z,7.33
2019-04-16T12:06:49.534Z,18.60
2019-04-16T12:09:46.280Z,9.73
2019-04-16T12:12:17.772Z,6.80
2019-04-16T12:15:06.462Z,5.27
2019-04-16T12:17:59.342Z,6.07
2019-04-16T12:20:50.272Z,7.20
2019-04-16T12:23:37.400Z,6.83
2019-04-16T12:26:29.126Z,8.10
2019-04-16T12:28:59.487Z,7.93
2019-04-16T12:31:34.286Z,9.17
2019-04-16T12:34:05.562Z,4.70
2019-04-16T12:36:52.963Z,10.30
2019-04-16T12:39:42.069Z,9.33
2019-04-16T12:42:41.190Z,7.40
2019-04-16T12:45:10.742Z,5.47
2019-04-16T12:47:51.198Z,6.47
2019-04-16T12:50:30.495Z,6.30
2019-04-16T12:53:02.082Z,6.27
2019-04-16T12:55:39.269Z,10.20
2019-04-16T12:58:25.464Z,5.10
2019-04-16T13:01:03.067Z,7.47
2019-04-16T13:03:51.896Z,5.63
2019-04-16T13:06:26.214Z,8.50
2019-04-16T13:08:55.977Z,7.50
2019-04-16T13:11:31.929Z,8.00
2019-04-16T13:14:04.311Z,10.23
2019-04-16T13:16:40.233Z,10.77
2019-04-16T13:19:30.363Z,6.23
2019-04-16T13:22:02.692Z,7.83
2019-04-16T13:24:36.749Z,9.73
2019-04-16T13:27:23.714Z,10.20
2019-04-16T13:29:52.493Z,7.40
2019-04-16T13:32:21.398Z,9.53
2019-04-16T13:34:51.819Z,9.57
2019-04-16T13:37:26.286Z,10.00
2019-04-16T13:40:11.247Z,11.37
2019-04-16T13:42:39.967Z,10.83
2019-04-16T13:45:25.549Z,9.03
2019-04-16T13:48:13.377Z,6.83
2019-04-16T13:50:39.832Z,10.87
2019-04-16T13:53:28.730Z,8.57
2019-04-16T13:56:02.312Z,10.23
2019-04-16T13:58:41.741Z,8.90
2019-04-16T14:01:20.457Z,9.43
2019-04-16T14:03:49.350Z,11.57
2019-04-16T14:06:18.905Z,12.17
2019-04-16T14:08:48.939Z,9.80
2019-04-16T14:11:19.722Z,9.23
2019-04-16T14:13:50.274Z,18.20
2019-04-16T14:16:22.280Z,9.37
2019-04-16T14:18:53.910Z,10.67
2019-04-16T14:21:25.657Z,10.70
2019-04-16T14:23:55.386Z,10.93
2019-04-16T14:26:26.908Z,13.57
2019-04-16T14:28:57.564Z,10.13
2019-04-16T14:31:32.887Z,19.17
2019-04-16T14:34:09.484Z,14.87
2019-04-16T14:36:44.310Z,11.57
2019-04-16T14:39:18.280Z,17.63
2019-04-16T14:41:50.252Z,15.57
2019-04-16T14:44:31.685Z,17.40
2019-04-16T14:47:03.411Z,13.37
2019-04-16T14:49:34.525Z,18.07
2019-04-16T14:52:05.260Z,15.77
2019-04-16T14:54:39.703Z,15.07
2019-04-16T14:57:10.981Z,11.30
2019-04-16T14:59:47.292Z,13.73
2019-04-16T15:02:35.387Z,12.13
2019-04-16T15:05:15.562Z,17.27
2019-04-16T15:07:57.873Z,14.40
2019-04-16T15:10:32.737Z,15.97
2019-04-16T15:13:06.518Z,13.40
2019-04-16T15:15:38.815Z,17.67
2019-04-16T15:18:11.063Z,17.50
2019-04-16T15:20:53.522Z,18.83
2019-04-16T15:23:30.776Z,25.67
2019-04-16T15:26:19.402Z,21.10
2019-04-16T15:28:49.801Z,21.80
2019-04-16T15:31:32.696Z,20.83
2019-04-16T15:34:17.550Z,16.03
2019-04-16T15:36:50.546Z,18.60
2019-04-16T15:39:22.346Z,15.53
2019-04-16T15:42:00.203Z,19.50
2019-04-16T15:44:35.585Z,12.93
2019-04-16T15:47:05.945Z,15.63
2019-04-16T15:49:42.427Z,14.30
2019-04-16T15:52:47.219Z,17.53
2019-04-16T15:55:32.875Z,15.97
2019-04-16T15:58:09.638Z,18.97
2019-04-16T16:00:44.963Z,18.10
2019-04-16T16:03:22.646Z,15.83
2019-04-16T16:05:56.558Z,17.70
2019-04-16T16:08:30.478Z,15.53
2019-04-16T16:11:09.047Z,17.30
2019-04-16T16:13:42.105Z,17.70
2019-04-16T16:16:17.708Z,14.47
2019-04-16T16:18:46.471Z,19.10
2019-04-16T16:21:17.711Z,18.63
2019-04-16T16:23:49.534Z,21.40
2019-04-16T16:26:18.406Z,18.30
2019-04-16T16:28:49.492Z,24.13
2019-04-16T16:31:20.652Z,20.37
2019-04-16T16:33:52.112Z,18.97
2019-04-16T16:36:21.615Z,16.57
2019-04-16T16:38:54.396Z,19.70
2019-04-16T16:41:24.055Z,19.40
2019-04-16T16:43:56.836Z,22.83
2019-04-16T16:49:38.803Z,19.30
2019-04-16T16:52:12.376Z,20.93
2019-04-16T16:54:46.059Z,22.40
2019-04-16T16:57:22.311Z,22.30
2019-04-16T16:59:56.371Z,18.07
2019-04-16T17:02:39.150Z,21.83
2019-04-16T17:05:14.351Z,22.80
2019-04-16T17:07:45.969Z,22.43
2019-04-16T17:10:16.227Z,21.93
2019-04-16T17:12:49.716Z,20.73
2019-04-16T17:15:24.264Z,22.93
2019-04-16T17:18:00.233Z,16.47
2019-04-16T17:20:38.368Z,24.23
2019-04-16T17:23:18.471Z,23.07
2019-04-16T17:25:52.011Z,18.87
2019-04-16T17:28:22.986Z,23.43
2019-04-16T17:30:54.492Z,20.13
2019-04-16T17:33:24.895Z,20.03
2019-04-16T17:35:56.517Z,17.17
2019-04-16T17:38:26.899Z,20.13
2019-04-16T17:40:59.871Z,20.30
2019-04-16T17:43:42.829Z,26.20
2019-04-16T17:46:24.807Z,24.23
2019-04-16T17:48:58.330Z,22.43
2019-04-16T17:51:31.542Z,20.43
2019-04-16T17:54:02.302Z,21.60
2019-04-16T17:56:39.150Z,21.73
2019-04-16T17:59:09.700Z,24.80
2019-04-16T18:01:55.826Z,19.07
2019-04-16T18:04:44.907Z,21.63
2019-04-16T18:07:19.022Z,19.53
2019-04-16T18:10:01.520Z,22.67
2019-04-16T18:12:42.902Z,19.73
2019-04-16T18:15:19.125Z,17.60
2019-04-16T18:17:50.278Z,21.17
2019-04-16T18:20:26.002Z,17.43
2019-04-16T18:23:12.581Z,19.07
2019-04-16T18:25:55.036Z,19.17
2019-04-16T18:28:34.007Z,17.30
2019-04-16T18:31:04.544Z,18.77
2019-04-16T18:33:34.971Z,13.47
2019-04-16T18:36:09.634Z,18.47
2019-04-16T18:38:45.622Z,17.60
2019-04-16T18:41:22.347Z,18.03
2019-04-16T18:44:08.882Z,19.97
2019-04-16T18:46:43.320Z,18.67
2019-04-16T18:49:17.187Z,14.53
2019-04-16T18:51:49.712Z,17.17
2019-04-16T18:54:18.500Z,14.20
2019-04-16T18:56:47.867Z,20.57
2019-04-16T18:59:16.844Z,15.73
2019-04-16T19:01:49.913Z,15.60
2019-04-16T19:04:20.024Z,16.37
2019-04-16T19:06:50.801Z,14.30
2019-04-16T19:09:21.221Z,15.43
2019-04-16T19:11:50.602Z,18.00
2019-04-16T19:14:19.435Z,19.53
2019-04-16T19:16:48.165Z,17.67
2019-04-16T19:19:17.115Z,20.77
2019-04-16T19:21:51.278Z,20.00
2019-04-16T19:24:17.660Z,19.10
2019-04-16T19:26:49.171Z,19.57
2019-04-16T19:29:25.084Z,25.53
2019-04-16T19:31:59.518Z,24.00
2019-04-16T19:34:25.913Z,28.67
2019-04-16T19:36:59.544Z,24.07
2019-04-16T19:39:28.068Z,20.20
2019-04-16T19:41:59.384Z,22.57
2019-04-16T19:44:28.204Z,24.83
2019-04-16T19:46:57.243Z,24.57
2019-04-16T19:49:26.043Z,28.07
2019-04-16T19:51:55.022Z,23.83
2019-04-16T19:54:24.003Z,24.10
2019-04-16T19:56:55.572Z,24.77
2019-04-16T19:59:24.943Z,19.77
2019-04-16T20:01:55.966Z,21.27
2019-04-16T20:04:24.171Z,23.27
2019-04-16T20:06:53.160Z,23.13
2019-04-16T20:09:24.958Z,22.23
2019-04-16T20:11:55.444Z,23.77
2019-04-16T20:14:25.755Z,25.33
2019-04-16T20:16:54.538Z,23.00
2019-04-16T20:19:23.367Z,24.77
2019-04-16T20:21:55.469Z,24.70
2019-04-16T20:24:26.433Z,28.07
2019-04-16T20:26:55.632Z,26.53
2019-04-16T20:29:25.712Z,27.70
2019-04-16T20:31:55.629Z,26.47
2019-04-16T20:34:24.585Z,25.50
2019-04-16T20:36:55.647Z,27.27
2019-04-16T20:39:25.493Z,24.77
2019-04-16T20:41:58.588Z,24.53
2019-04-16T20:44:24.620Z,25.13
2019-04-16T20:46:53.947Z,21.43
2019-04-16T20:49:22.631Z,23.53
2019-04-16T20:51:52.286Z,21.87
2019-04-16T20:54:21.014Z,29.03
2019-04-16T20:56:52.896Z,23.13
2019-04-16T20:59:20.191Z,25.03
2019-04-16T21:01:49.035Z,26.40
2019-04-16T21:04:18.633Z,26.60
2019-04-16T21:06:47.590Z,26.23
2019-04-16T21:09:17.583Z,23.90
2019-04-16T21:11:46.332Z,27.43
2019-04-16T21:14:15.142Z,22.27
2019-04-16T21:16:43.809Z,23.53
2019-04-16T21:19:22.974Z,26.53
2019-04-16T21:21:44.551Z,22.27
2019-04-16T21:24:15.288Z,23.80
2019-04-16T21:26:43.962Z,19.63
2019-04-16T21:29:17.001Z,23.40
2019-04-16T21:31:50.004Z,22.17
2019-04-16T21:34:24.236Z,26.77
2019-04-16T21:37:10.569Z,21.47
2019-04-16T21:39:46.938Z,26.63
2019-04-16T21:42:14.191Z,26.40
2019-04-16T21:44:44.706Z,23.83
2019-04-16T21:47:14.958Z,21.27
2019-04-16T21:49:45.772Z,24.13
2019-04-16T21:52:14.393Z,28.40
2019-04-16T21:54:43.276Z,23.57
2019-04-16T21:57:13.486Z,24.90
2019-04-16T21:59:50.375Z,30.70
2019-04-16T22:02:27.999Z,24.90
2019-04-16T22:04:59.365Z,22.13
2019-04-16T22:07:28.440Z,23.80
2019-04-16T22:09:58.321Z,29.53
2019-04-16T22:12:27.115Z,25.03
2019-04-16T22:14:56.006Z,25.30
2019-04-16T22:17:27.172Z,24.10
2019-04-16T22:20:01.753Z,21.60
2019-04-16T22:22:28.915Z,21.10
2019-04-16T22:24:57.985Z,22.90
2019-04-16T22:27:28.281Z,25.67
2019-04-16T22:29:57.938Z,26.30
2019-04-16T22:32:27.077Z,24.30
2019-04-16T22:34:57.603Z,23.43
2019-04-16T22:37:27.401Z,26.00
2019-04-16T22:40:14.207Z,27.43
2019-04-16T22:42:46.406Z,25.30
2019-04-16T22:45:30.364Z,25.30
2019-04-16T22:47:59.971Z,24.40
2019-04-16T22:50:28.708Z,20.87
2019-04-16T22:52:57.504Z,29.73
2019-04-16T22:55:26.537Z,25.73
2019-04-16T22:57:55.737Z,22.00
2019-04-16T23:00:30.423Z,28.77
2019-04-16T23:03:01.754Z,24.13
2019-04-16T23:05:32.004Z,25.67
2019-04-16T23:08:01.566Z,20.63
2019-04-16T23:10:32.252Z,20.93
2019-04-16T23:13:01.591Z,23.37
2019-04-16T23:15:30.804Z,26.20
2019-04-16T23:17:59.532Z,24.90
2019-04-16T23:20:29.963Z,23.90
2019-04-16T23:23:01.159Z,25.87
2019-04-16T23:25:31.305Z,19.93
2019-04-16T23:28:00.013Z,23.20
2019-04-16T23:30:30.906Z,24.50
2019-04-16T23:33:01.314Z,23.93
2019-04-16T23:35:32.919Z,20.53
2019-04-16T23:38:01.939Z,20.50
2019-04-16T23:40:32.536Z,21.10
2019-04-16T23:43:22.207Z,24.97
2019-04-16T23:46:08.377Z,21.63
2019-04-16T23:48:54.127Z,22.80
2019-04-16T23:51:42.797Z,17.63
2019-04-16T23:54:18.907Z,17.47
2019-04-16T23:56:49.804Z,18.13
2019-04-16T23:59:35.754Z,19.73
